createdAt,value
2019-05-22T00:02:21.900Z,18.49
2019-05-22T00:04:59.065Z,17.97
2019-05-22T00:07:28.599Z,18.19
2019-05-22T00:09:58.778Z,18.97
2019-05-22T00:12:28.711Z,18.32
2019-05-22T00:14:58.514Z,19.08
2019-05-22T00:17:30.716Z,18.63
2019-05-22T00:20:00.472Z,17.05
2019-05-22T00:22:31.233Z,18.38
2019-05-22T00:25:01.347Z,17.73
2019-05-22T00:27:32.356Z,17.18
2019-05-22T00:30:02.116Z,18.09
2019-05-22T00:32:31.079Z,17.89
2019-05-22T00:35:00.252Z,18.06
2019-05-22T00:37:29.048Z,17.83
2019-05-22T00:40:00.081Z,17.67
2019-05-22T00:42:28.980Z,17.50
2019-05-22T00:44:59.400Z,17.02
2019-05-22T00:47:28.955Z,17.80
2019-05-22T00:49:59.476Z,18.01
2019-05-22T00:52:52.470Z,17.62
2019-05-22T00:55:40.196Z,17.24
2019-05-22T00:58:30.753Z,16.89
2019-05-22T01:01:05.937Z,17.80
2019-05-22T01:03:36.345Z,18.64
2019-05-22T01:06:05.735Z,17.89
2019-05-22T01:08:37.522Z,17.98
2019-05-22T01:11:08.062Z,17.16
2019-05-22T01:13:37.809Z,16.71
2019-05-22T01:16:10.201Z,16.68
2019-05-22T01:18:39.512Z,17.59
2019-05-22T01:21:10.235Z,17.78
2019-05-22T01:23:39.853Z,17.57
2019-05-22T01:26:11.243Z,18.46
2019-05-22T01:28:40.648Z,19.23
2019-05-22T01:31:17.528Z,18.68
2019-05-22T01:33:51.988Z,17.48
2019-05-22T01:36:26.254Z,17.49
2019-05-22T01:38:57.720Z,18.88
2019-05-22T01:41:30.311Z,18.21
2019-05-22T01:44:00.199Z,17.75
2019-05-22T01:46:32.972Z,18.40
2019-05-22T01:49:03.973Z,18.20
2019-05-22T01:51:32.583Z,19.04
2019-05-22T01:54:02.549Z,18.43
2019-05-22T01:56:34.808Z,17.97
2019-05-22T01:59:04.638Z,18.46
2019-05-22T02:01:33.781Z,18.41
2019-05-22T02:04:02.529Z,17.97
2019-05-22T02:06:31.172Z,18.94
2019-05-22T02:09:11.847Z,18.09
2019-05-22T02:11:40.720Z,18.40
2019-05-22T02:14:12.333Z,18.28
2019-05-22T02:16:56.186Z,17.53
2019-05-22T02:19:15.189Z,17.65
2019-05-22T02:21:44.296Z,17.85
2019-05-22T02:24:13.298Z,18.22
2019-05-22T02:26:42.916Z,17.50
2019-05-22T02:29:13.278Z,17.43
2019-05-22T02:31:43.797Z,18.05
2019-05-22T02:34:12.494Z,16.81
2019-05-22T02:36:42.476Z,17.18
2019-05-22T02:39:18.722Z,16.43
2019-05-22T02:41:52.436Z,16.99
2019-05-22T02:44:22.854Z,16.34
2019-05-22T02:46:53.046Z,17.54
2019-05-22T02:49:22.102Z,16.61
2019-05-22T02:51:52.783Z,17.63
2019-05-22T02:54:21.902Z,18.05
2019-05-22T02:56:51.206Z,17.69
2019-05-22T02:59:21.360Z,18.23
2019-05-22T03:01:51.261Z,17.42
2019-05-22T03:04:20.005Z,17.93
2019-05-22T03:06:48.965Z,18.02
2019-05-22T03:09:29.997Z,18.46
2019-05-22T03:12:04.048Z,18.19
2019-05-22T03:14:34.501Z,17.67
2019-05-22T03:17:05.698Z,18.02
2019-05-22T03:19:39.033Z,17.47
2019-05-22T03:22:31.309Z,17.64
2019-05-22T03:25:02.035Z,17.28
2019-05-22T03:27:45.788Z,16.97
2019-05-22T03:30:24.189Z,17.47
2019-05-22T03:32:54.252Z,17.27
2019-05-22T03:35:23.856Z,16.39
2019-05-22T03:37:53.201Z,16.61
2019-05-22T03:40:22.301Z,16.42
2019-05-22T03:42:51.541Z,16.80
2019-05-22T03:45:22.181Z,15.52
2019-05-22T03:47:51.366Z,16.78
2019-05-22T03:50:20.874Z,17.16
2019-05-22T03:52:49.781Z,16.48
2019-05-22T03:55:18.572Z,15.85
2019-05-22T03:57:47.386Z,16.15
2019-05-22T04:00:17.438Z,15.67
2019-05-22T04:02:49.778Z,16.98
2019-05-22T04:05:19.852Z,16.53
2019-05-22T04:07:50.349Z,17.81
2019-05-22T04:10:19.377Z,17.45
2019-05-22T04:12:48.364Z,16.85
2019-05-22T04:15:17.236Z,17.14
2019-05-22T04:17:46.456Z,16.54
2019-05-22T04:20:17.963Z,18.15
2019-05-22T04:22:46.752Z,17.74
2019-05-22T04:25:15.720Z,17.75
2019-05-22T04:27:44.571Z,17.41
2019-05-22T04:30:14.456Z,17.90
2019-05-22T04:32:44.985Z,16.63
2019-05-22T04:35:17.657Z,17.84
2019-05-22T04:37:49.213Z,17.54
2019-05-22T04:40:56.661Z,17.87
2019-05-22T04:43:26.709Z,18.36
2019-05-22T04:45:56.946Z,16.48
2019-05-22T04:48:26.966Z,16.45
2019-05-22T04:50:58.790Z,16.78
2019-05-22T04:53:29.745Z,16.58
2019-05-22T04:55:58.793Z,18.09
2019-05-22T04:58:31.216Z,16.77
2019-05-22T05:01:00.174Z,17.25
2019-05-22T05:03:30.130Z,17.52
2019-05-22T05:05:59.186Z,17.55
2019-05-22T05:08:29.121Z,17.07
2019-05-22T05:11:02.290Z,16.89
2019-05-22T05:13:31.904Z,16.74
2019-05-22T05:16:01.474Z,17.64
2019-05-22T05:18:32.612Z,16.88
2019-05-22T05:21:01.265Z,16.90
2019-05-22T05:23:29.874Z,17.15
2019-05-22T05:25:59.576Z,17.02
2019-05-22T05:28:28.599Z,16.84
2019-05-22T05:30:57.726Z,16.38
2019-05-22T05:33:26.930Z,16.10
2019-05-22T05:35:56.341Z,16.45
2019-05-22T05:38:33.869Z,15.90
2019-05-22T05:41:03.320Z,17.08
2019-05-22T05:43:32.373Z,16.10
2019-05-22T05:46:01.113Z,17.02
2019-05-22T05:48:31.449Z,16.23
2019-05-22T05:51:33.181Z,16.91
2019-05-22T05:54:07.325Z,16.73
2019-05-22T05:56:37.039Z,17.07
2019-05-22T05:59:07.480Z,16.56
2019-05-22T06:01:48.248Z,16.35
2019-05-22T06:04:34.010Z,17.26
2019-05-22T06:07:27.829Z,18.02
2019-05-22T06:10:42.300Z,17.80
2019-05-22T06:13:11.540Z,17.48
2019-05-22T06:16:30.924Z,17.53
2019-05-22T06:18:59.626Z,17.72
2019-05-22T06:21:28.529Z,17.12
2019-05-22T06:24:25.179Z,17.64
2019-05-22T06:27:08.936Z,17.60
2019-05-22T06:29:55.774Z,17.00
2019-05-22T06:33:02.983Z,16.62
2019-05-22T06:35:37.539Z,16.57
2019-05-22T06:38:21.157Z,16.20
2019-05-22T06:40:50.244Z,16.65
2019-05-22T06:43:57.547Z,16.29
2019-05-22T06:46:46.632Z,17.30
2019-05-22T06:49:43.482Z,16.84
2019-05-22T06:52:12.615Z,16.94
2019-05-22T06:54:41.553Z,17.16
2019-05-22T06:57:14.670Z,16.79
2019-05-22T06:59:44.791Z,17.14
2019-05-22T07:02:14.915Z,17.16
2019-05-22T07:04:44.111Z,17.31
2019-05-22T07:07:13.825Z,17.56
2019-05-22T07:09:44.719Z,18.20
2019-05-22T07:12:15.654Z,17.34
2019-05-22T07:15:42.316Z,17.90
2019-05-22T07:18:13.388Z,18.30
2019-05-22T07:20:42.729Z,17.42
2019-05-22T07:23:20.525Z,18.11
2019-05-22T07:25:51.714Z,17.68
2019-05-22T07:28:23.817Z,17.92
2019-05-22T07:30:53.592Z,17.54
2019-05-22T07:33:22.910Z,18.33
2019-05-22T07:36:08.753Z,17.78
2019-05-22T07:38:22.729Z,18.14
2019-05-22T07:40:51.995Z,18.17
2019-05-22T07:43:21.946Z,17.49
2019-05-22T07:45:52.738Z,16.77
2019-05-22T07:48:23.254Z,17.91
2019-05-22T07:50:54.105Z,17.35
2019-05-22T07:53:25.078Z,17.63
2019-05-22T07:55:54.833Z,17.40
2019-05-22T07:58:23.994Z,17.06
2019-05-22T08:01:01.825Z,16.54
2019-05-22T08:03:31.818Z,16.92
2019-05-22T08:06:01.617Z,17.66
2019-05-22T08:08:33.055Z,18.02
2019-05-22T08:11:02.208Z,18.58
2019-05-22T08:13:32.153Z,18.49
2019-05-22T08:16:00.904Z,17.76
2019-05-22T08:18:32.611Z,17.68
2019-05-22T08:21:01.873Z,17.50
2019-05-22T08:23:30.988Z,16.24
2019-05-22T08:26:00.871Z,17.03
2019-05-22T08:28:31.698Z,17.18
2019-05-22T08:31:01.243Z,16.54
2019-05-22T08:33:31.710Z,17.05
2019-05-22T08:36:01.968Z,17.46
2019-05-22T08:38:32.613Z,18.00
2019-05-22T08:41:02.933Z,18.48
2019-05-22T08:43:49.564Z,17.31
2019-05-22T08:46:04.909Z,16.56
2019-05-22T08:48:34.476Z,17.60
2019-05-22T08:51:04.987Z,16.77
2019-05-22T08:53:46.752Z,18.10
2019-05-22T08:56:05.082Z,18.01
2019-05-22T08:58:38.938Z,17.55
2019-05-22T09:01:08.682Z,16.55
2019-05-22T09:03:37.720Z,16.52
2019-05-22T09:06:06.565Z,16.62
2019-05-22T09:08:35.368Z,16.43
2019-05-22T09:11:04.457Z,16.38
2019-05-22T09:13:33.737Z,16.27
2019-05-22T09:16:03.030Z,16.39
2019-05-22T09:18:32.119Z,15.79
2019-05-22T09:21:01.325Z,16.97
2019-05-22T09:23:30.935Z,16.53
2019-05-22T09:26:00.070Z,17.86
2019-05-22T09:28:29.263Z,18.12
2019-05-22T09:30:57.955Z,17.95
2019-05-22T09:33:27.868Z,17.78
2019-05-22T09:35:57.123Z,17.94
2019-05-22T09:38:25.828Z,18.10
2019-05-22T09:40:54.521Z,17.33
2019-05-22T09:43:23.483Z,17.48
2019-05-22T09:45:52.295Z,16.30
2019-05-22T09:48:21.351Z,16.44
2019-05-22T09:50:50.852Z,16.77
2019-05-22T09:53:21.388Z,16.84
2019-05-22T09:55:50.363Z,17.83
2019-05-22T09:58:19.184Z,18.08
2019-05-22T10:00:47.826Z,16.91
2019-05-22T10:03:16.856Z,16.93
2019-05-22T10:05:46.349Z,18.22
2019-05-22T10:08:15.325Z,18.37
2019-05-22T10:10:44.592Z,17.60
2019-05-22T10:13:13.388Z,17.73
2019-05-22T10:15:43.103Z,18.11
2019-05-22T10:18:11.889Z,18.38
2019-05-22T10:20:41.022Z,17.23
2019-05-22T10:23:15.466Z,18.13
2019-05-22T10:25:40.745Z,17.78
2019-05-22T10:28:09.898Z,18.50
2019-05-22T10:30:38.750Z,18.99
2019-05-22T10:33:07.673Z,18.82
2019-05-22T10:35:37.271Z,17.87
2019-05-22T10:38:07.372Z,18.87
2019-05-22T10:40:36.299Z,18.23
2019-05-22T10:43:05.389Z,17.86
2019-05-22T10:45:34.402Z,18.53
2019-05-22T10:48:03.294Z,19.46
2019-05-22T10:50:31.903Z,18.62
2019-05-22T10:53:00.619Z,18.44
2019-05-22T10:55:29.869Z,19.86
2019-05-22T10:57:58.683Z,19.51
2019-05-22T11:00:27.449Z,18.97
2019-05-22T11:02:56.387Z,18.26
2019-05-22T11:05:25.458Z,19.01
2019-05-22T11:07:54.126Z,20.51
2019-05-22T11:10:24.331Z,19.35
2019-05-22T11:12:53.152Z,19.33
2019-05-22T11:15:22.549Z,20.32
2019-05-22T11:17:51.507Z,19.52
2019-05-22T11:20:20.835Z,20.86
2019-05-22T11:22:50.611Z,19.31
2019-05-22T11:25:20.302Z,19.64
2019-05-22T11:27:48.993Z,20.20
2019-05-22T11:30:18.256Z,20.26
2019-05-22T11:32:46.878Z,18.63
2019-05-22T11:35:16.148Z,18.75
2019-05-22T11:37:44.902Z,19.04
2019-05-22T11:40:14.174Z,19.46
2019-05-22T11:42:42.867Z,18.61
2019-05-22T11:45:14.074Z,19.01
2019-05-22T11:47:42.858Z,20.01
2019-05-22T11:50:12.330Z,20.02
2019-05-22T11:52:42.184Z,20.22
2019-05-22T11:57:49.111Z,19.13
2019-05-22T12:00:19.830Z,19.25
2019-05-22T12:02:49.643Z,20.20
2019-05-22T12:05:19.199Z,19.51
2019-05-22T12:07:48.765Z,20.49
2019-05-22T12:10:20.539Z,21.17
2019-05-22T12:12:50.991Z,20.31
2019-05-22T12:15:22.866Z,19.92
2019-05-22T12:17:51.762Z,20.72
2019-05-22T12:20:22.133Z,20.48
2019-05-22T12:22:50.927Z,20.27
2019-05-22T12:25:19.911Z,20.31
2019-05-22T12:27:48.896Z,19.92
2019-05-22T12:30:18.263Z,20.72
2019-05-22T12:32:46.994Z,20.37
2019-05-22T12:35:16.066Z,21.30
2019-05-22T12:37:44.851Z,20.92
2019-05-22T12:40:15.571Z,21.86
2019-05-22T12:42:45.016Z,20.53
2019-05-22T12:45:15.446Z,20.79
2019-05-22T12:47:44.398Z,20.27
2019-05-22T12:50:14.371Z,21.32
2019-05-22T12:52:46.998Z,21.92
2019-05-22T12:55:16.968Z,22.06
2019-05-22T12:57:46.039Z,22.21
2019-05-22T13:00:15.625Z,23.60
2019-05-22T13:02:44.307Z,22.76
2019-05-22T13:05:14.422Z,21.98
2019-05-22T13:07:43.611Z,23.08
2019-05-22T13:10:12.434Z,22.50
2019-05-22T13:12:41.283Z,22.49
2019-05-22T13:15:11.102Z,21.84
2019-05-22T13:17:40.922Z,21.92
2019-05-22T13:20:10.279Z,22.40
2019-05-22T13:22:43.611Z,22.30
2019-05-22T13:25:12.503Z,22.00
2019-05-22T13:27:41.825Z,22.00
2019-05-22T13:30:12.051Z,20.66
2019-05-22T13:32:41.700Z,20.63
2019-05-22T13:35:11.847Z,21.84
2019-05-22T13:37:40.629Z,21.18
2019-05-22T13:40:26.570Z,21.39
2019-05-22T13:42:41.128Z,21.67
2019-05-22T13:45:27.761Z,22.39
2019-05-22T13:47:43.430Z,21.92
2019-05-22T13:50:12.744Z,22.38
2019-05-22T13:52:41.828Z,22.95
2019-05-22T13:55:11.354Z,22.50
2019-05-22T13:57:41.851Z,21.95
2019-05-22T14:00:12.078Z,20.61
2019-05-22T14:02:41.006Z,21.10
2019-05-22T14:05:13.778Z,21.07
2019-05-22T14:07:41.099Z,20.49
2019-05-22T14:10:10.018Z,21.28
2019-05-22T14:12:38.640Z,21.08
2019-05-22T14:15:07.281Z,21.38
2019-05-22T14:17:36.017Z,21.75
2019-05-22T14:20:05.218Z,21.31
2019-05-22T14:22:33.933Z,21.32
2019-05-22T14:25:02.664Z,21.33
2019-05-22T14:27:31.333Z,22.23
2019-05-22T14:30:01.252Z,22.86
2019-05-22T14:32:30.880Z,22.18
2019-05-22T14:34:59.876Z,21.29
2019-05-22T14:37:28.784Z,21.17
2019-05-22T14:39:57.683Z,20.89
2019-05-22T14:42:26.461Z,21.92
2019-05-22T14:44:55.274Z,22.10
2019-05-22T14:47:24.118Z,22.21
2019-05-22T14:49:52.748Z,21.84
2019-05-22T14:52:21.925Z,21.66
2019-05-22T14:54:50.718Z,21.59
2019-05-22T14:57:19.490Z,21.98
2019-05-22T14:59:48.181Z,21.48
2019-05-22T15:02:17.513Z,21.86
2019-05-22T15:04:46.437Z,22.35
2019-05-22T15:07:15.422Z,22.28
2019-05-22T15:09:44.089Z,22.76
2019-05-22T15:12:12.718Z,21.12
2019-05-22T15:14:41.722Z,21.71
2019-05-22T15:17:10.935Z,22.88
2019-05-22T15:19:39.589Z,22.53
2019-05-22T15:22:09.478Z,22.85
2019-05-22T15:24:38.488Z,22.42
2019-05-22T15:27:08.212Z,21.87
2019-05-22T15:29:36.921Z,21.79
2019-05-22T15:32:07.916Z,21.20
2019-05-22T15:34:38.564Z,21.42
2019-05-22T15:37:09.387Z,20.92
2019-05-22T15:39:38.479Z,21.81
2019-05-22T15:42:08.210Z,21.89
2019-05-22T15:44:37.481Z,22.03
2019-05-22T15:47:06.583Z,22.87
2019-05-22T15:49:35.594Z,22.49
2019-05-22T15:52:07.298Z,22.02
2019-05-22T15:54:37.591Z,22.02
2019-05-22T15:57:09.862Z,21.14
2019-05-22T15:59:40.052Z,22.59
2019-05-22T16:02:09.308Z,22.41
2019-05-22T16:04:46.200Z,21.83
2019-05-22T16:07:17.067Z,22.23
2019-05-22T16:09:47.507Z,22.69
2019-05-22T16:12:16.695Z,22.92
2019-05-22T16:14:45.483Z,22.26
2019-05-22T16:17:14.794Z,23.01
2019-05-22T16:19:44.563Z,23.03
2019-05-22T16:22:13.868Z,22.09
2019-05-22T16:27:12.711Z,22.78
2019-05-22T16:29:41.972Z,22.08
2019-05-22T16:32:14.387Z,20.90
2019-05-22T16:34:43.338Z,22.16
2019-05-22T16:37:12.497Z,22.15
2019-05-22T16:39:42.099Z,22.33
2019-05-22T16:42:11.605Z,23.28
2019-05-22T16:44:40.434Z,22.56
2019-05-22T16:47:09.716Z,23.15
2019-05-22T16:49:38.796Z,22.29
2019-05-22T16:52:09.026Z,22.68
2019-05-22T16:54:38.322Z,22.64
2019-05-22T16:57:08.593Z,22.62
2019-05-22T16:59:39.038Z,23.19
2019-05-22T17:02:08.256Z,22.91
2019-05-22T17:04:36.914Z,23.27
2019-05-22T17:07:06.691Z,23.23
2019-05-22T17:09:36.158Z,22.70
2019-05-22T17:12:07.811Z,22.84
2019-05-22T17:14:36.485Z,22.93
2019-05-22T17:17:05.610Z,22.96
2019-05-22T17:19:35.026Z,23.14
2019-05-22T17:22:03.773Z,23.27
2019-05-22T17:24:34.372Z,22.62
2019-05-22T17:27:05.099Z,21.98
2019-05-22T17:29:34.180Z,22.68
2019-05-22T17:32:04.249Z,22.60
2019-05-22T17:34:34.444Z,23.11
2019-05-22T17:37:08.560Z,22.65
2019-05-22T17:39:39.219Z,22.63
2019-05-22T17:42:10.611Z,23.01
2019-05-22T17:44:39.368Z,22.70
2019-05-22T17:47:09.126Z,22.95
2019-05-22T17:49:38.410Z,22.48
2019-05-22T17:52:12.052Z,21.32
2019-05-22T17:54:39.962Z,22.64
2019-05-22T17:57:10.960Z,22.97
2019-05-22T17:59:40.171Z,23.22
2019-05-22T18:02:10.933Z,23.35
2019-05-22T18:04:39.862Z,22.86
2019-05-22T18:07:09.329Z,22.65
2019-05-22T18:09:38.661Z,22.79
2019-05-22T18:12:08.688Z,22.68
2019-05-22T18:14:37.771Z,22.71
2019-05-22T18:17:07.696Z,22.18
2019-05-22T18:19:36.710Z,22.28
2019-05-22T18:22:06.184Z,22.42
2019-05-22T18:24:34.938Z,22.57
2019-05-22T18:27:03.946Z,21.80
2019-05-22T18:29:35.827Z,21.45
2019-05-22T18:32:06.598Z,21.76
2019-05-22T18:34:35.319Z,21.65
2019-05-22T18:37:04.057Z,21.68
2019-05-22T18:39:33.946Z,21.30
2019-05-22T18:42:02.754Z,21.22
2019-05-22T18:44:31.484Z,20.85
2019-05-22T18:47:00.493Z,20.91
2019-05-22T18:49:29.184Z,20.45
2019-05-22T18:51:57.897Z,20.42
2019-05-22T18:54:26.985Z,20.27
2019-05-22T18:56:55.768Z,20.18
2019-05-22T18:59:24.504Z,20.59
2019-05-22T19:01:53.385Z,20.40
2019-05-22T19:04:22.451Z,20.37
2019-05-22T19:06:51.414Z,20.01
2019-05-22T19:09:20.254Z,20.01
2019-05-22T19:11:49.198Z,20.02
2019-05-22T19:14:18.420Z,19.80
2019-05-22T19:16:47.110Z,19.31
2019-05-22T19:19:16.039Z,19.26
2019-05-22T19:21:44.638Z,19.53
2019-05-22T19:24:14.093Z,19.00
2019-05-22T19:27:04.092Z,19.48
2019-05-22T19:29:33.052Z,19.55
2019-05-22T19:32:01.940Z,18.69
2019-05-22T19:34:31.357Z,18.15
2019-05-22T19:37:00.048Z,18.05
2019-05-22T19:39:29.707Z,17.65
2019-05-22T19:42:02.999Z,17.60
2019-05-22T19:44:29.109Z,17.49
2019-05-22T19:46:57.980Z,18.00
2019-05-22T19:49:26.718Z,18.28
2019-05-22T19:51:56.857Z,17.74
2019-05-22T19:54:26.769Z,17.89
2019-05-22T19:56:55.690Z,18.41
2019-05-22T19:59:25.117Z,18.26
2019-05-22T20:01:54.036Z,18.25
2019-05-22T20:04:23.574Z,17.96
2019-05-22T20:06:54.081Z,17.77
2019-05-22T20:09:23.127Z,17.93
2019-05-22T20:11:52.661Z,18.28
2019-05-22T20:14:21.660Z,17.62
2019-05-22T20:16:50.743Z,18.07
2019-05-22T20:19:19.423Z,18.12
2019-05-22T20:21:48.218Z,18.20
2019-05-22T20:24:17.254Z,17.38
2019-05-22T20:26:46.028Z,17.88
2019-05-22T20:29:16.461Z,17.41
2019-05-22T20:31:45.474Z,17.49
2019-05-22T20:34:14.469Z,18.16
2019-05-22T20:36:43.196Z,18.04
2019-05-22T20:39:14.615Z,18.05
2019-05-22T20:41:43.682Z,18.02
2019-05-22T20:44:12.538Z,17.91
2019-05-22T20:46:43.740Z,17.30
2019-05-22T20:49:13.010Z,16.78
2019-05-22T20:51:42.773Z,17.62
2019-05-22T20:54:12.922Z,17.62
2019-05-22T20:56:43.815Z,17.69
2019-05-22T20:59:13.155Z,17.18
2019-05-22T21:01:42.131Z,17.18
2019-05-22T21:04:12.843Z,17.42
2019-05-22T21:06:48.452Z,17.27
2019-05-22T21:09:17.417Z,17.27
2019-05-22T21:11:46.433Z,17.25
2019-05-22T21:14:16.937Z,16.95
2019-05-22T21:16:46.383Z,16.95
2019-05-22T21:19:17.404Z,17.49
2019-05-22T21:21:46.303Z,16.94
2019-05-22T21:24:15.189Z,16.82
2019-05-22T21:26:44.871Z,17.08
2019-05-22T21:29:14.505Z,17.18
2019-05-22T21:31:47.480Z,17.18
2019-05-22T21:34:14.925Z,17.03
2019-05-22T21:36:44.043Z,16.64
2019-05-22T21:39:13.938Z,17.05
2019-05-22T21:41:42.677Z,16.87
2019-05-22T21:44:11.692Z,16.87
2019-05-22T21:46:41.379Z,16.34
2019-05-22T21:49:10.848Z,16.10
2019-05-22T21:51:39.510Z,16.80
2019-05-22T21:54:10.090Z,16.31
2019-05-22T21:56:39.990Z,16.31
2019-05-22T21:59:09.721Z,16.63
2019-05-22T22:01:58.777Z,16.63
2019-05-22T22:04:32.563Z,16.83
2019-05-22T22:07:01.675Z,16.77
2019-05-22T22:09:30.491Z,16.50
2019-05-22T22:12:01.217Z,16.50
2019-05-22T22:14:30.847Z,16.64
2019-05-22T22:17:00.093Z,15.96
2019-05-22T22:19:29.675Z,16.54
2019-05-22T22:21:58.704Z,16.54
2019-05-22T22:24:28.046Z,16.16
2019-05-22T22:26:58.322Z,16.28
2019-05-22T22:29:27.400Z,16.28
2019-05-22T22:31:57.382Z,16.57
2019-05-22T22:34:35.417Z,16.08
2019-05-22T22:37:04.466Z,15.86
2019-05-22T22:39:34.671Z,15.96
2019-05-22T22:42:04.590Z,16.15
2019-05-22T22:44:34.683Z,15.95
2019-05-22T22:47:06.674Z,16.00
2019-05-22T22:49:37.781Z,15.76
2019-05-22T22:52:07.679Z,16.14
2019-05-22T22:54:36.396Z,16.26
2019-05-22T22:57:07.002Z,15.73
2019-05-22T22:59:36.226Z,16.18
2019-05-22T23:02:07.301Z,16.05
2019-05-22T23:04:36.144Z,15.42
2019-05-22T23:07:07.685Z,15.83
2019-05-22T23:09:37.680Z,15.86
2019-05-22T23:12:07.730Z,16.39
2019-05-22T23:14:37.069Z,15.69
2019-05-22T23:17:06.885Z,15.69
2019-05-22T23:19:35.838Z,15.57
2019-05-22T23:22:05.907Z,16.28
2019-05-22T23:24:37.841Z,15.56
2019-05-22T23:27:06.899Z,15.40
2019-05-22T23:29:37.203Z,15.60
2019-05-22T23:32:06.536Z,15.95
2019-05-22T23:34:35.295Z,15.95
2019-05-22T23:37:04.040Z,15.42
2019-05-22T23:39:33.332Z,15.82
2019-05-22T23:42:08.167Z,15.50
2019-05-22T23:44:37.513Z,16.49
2019-05-22T23:47:07.900Z,15.68
2019-05-22T23:49:38.060Z,15.70
2019-05-22T23:52:07.663Z,15.63
2019-05-22T23:54:37.291Z,15.39
2019-05-22T23:57:06.157Z,15.58
2019-05-22T23:59:36.618Z,16.20
